createdAt,value
2022-12-01T00:00:55.819Z,14.37
2022-12-01T00:06:31.851Z,13.40
2022-12-01T00:09:37.959Z,13.43
2022-12-01T00:15:32.616Z,15.07
2022-12-01T00:21:24.816Z,13.47
2022-12-01T00:26:59.026Z,14.63
2022-12-01T00:32:35.168Z,15.33
2022-12-01T00:38:13.687Z,14.50
2022-12-01T00:44:01.187Z,14.57
2022-12-01T00:49:29.906Z,15.50
2022-12-01T00:55:02.634Z,15.77
2022-12-01T01:00:31.105Z,16.37
2022-12-01T01:03:19.735Z,14.67
2022-12-01T01:08:56.354Z,15.60
2022-12-01T01:14:34.319Z,16.23
2022-12-01T01:28:28.310Z,15.57
2022-12-01T01:34:01.640Z,16.50
2022-12-01T01:36:50.535Z,17.10
2022-12-01T01:42:25.732Z,16.57
2022-12-01T01:45:24.357Z,16.13
2022-12-01T01:48:15.579Z,17.00
2022-12-01T01:54:00.013Z,16.70
2022-12-01T01:56:50.199Z,15.80
2022-12-01T02:02:23.080Z,16.23
2022-12-01T02:11:25.904Z,16.33
2022-12-01T02:17:03.525Z,15.67
2022-12-01T02:20:23.090Z,16.40
2022-12-01T02:23:32.459Z,16.13
2022-12-01T02:29:52.744Z,15.87
2022-12-01T02:32:53.109Z,15.10
2022-12-01T02:38:38.644Z,15.70
2022-12-01T02:44:20.122Z,17.03
2022-12-01T02:49:53.032Z,16.80
2022-12-01T02:55:50.075Z,15.90
2022-12-01T03:01:43.218Z,15.87
2022-12-01T03:07:55.343Z,16.10
2022-12-01T03:10:46.647Z,16.50
2022-12-01T03:19:00.665Z,15.70
2022-12-01T03:24:55.704Z,15.67
2022-12-01T03:30:31.508Z,14.93
2022-12-01T03:36:16.262Z,16.90
2022-12-01T03:41:58.697Z,16.60
2022-12-01T03:47:48.136Z,15.77
2022-12-01T03:53:25.707Z,16.77
2022-12-01T03:58:58.396Z,16.53
2022-12-01T04:04:33.822Z,15.50
2022-12-01T04:10:11.361Z,16.30
2022-12-01T04:12:59.719Z,14.37
2022-12-01T04:15:48.981Z,16.30
2022-12-01T04:18:37.599Z,15.77
2022-12-01T04:24:13.808Z,15.03
2022-12-01T04:29:40.876Z,14.43
2022-12-01T04:35:15.905Z,15.17
2022-12-01T04:40:51.090Z,14.33
2022-12-01T04:43:39.530Z,13.93
2022-12-01T04:52:03.752Z,14.70
2022-12-01T04:57:41.329Z,15.27
2022-12-01T05:00:29.642Z,13.90
2022-12-01T05:03:19.188Z,14.77
2022-12-01T05:06:09.959Z,14.90
2022-12-01T05:11:43.206Z,15.43
2022-12-01T05:14:32.702Z,14.27
2022-12-01T05:17:21.144Z,15.40
2022-12-01T05:20:32.722Z,14.90
2022-12-01T05:26:00.740Z,15.07
2022-12-01T05:31:27.658Z,15.13
2022-12-01T05:36:57.627Z,15.17
2022-12-01T05:42:36.547Z,15.67
2022-12-01T05:50:53.209Z,15.80
2022-12-01T05:56:33.894Z,15.13
2022-12-01T06:02:11.134Z,15.17
2022-12-01T06:07:47.885Z,14.93
2022-12-01T06:16:05.370Z,16.57
2022-12-01T06:21:42.021Z,16.37
2022-12-01T06:27:09.862Z,15.20
2022-12-01T06:32:44.432Z,16.03
2022-12-01T06:35:33.435Z,16.83
2022-12-01T06:38:23.187Z,16.97
2022-12-01T06:41:27.063Z,16.00
2022-12-01T06:44:16.580Z,16.03
2022-12-01T06:49:53.829Z,16.53
2022-12-01T06:52:43.823Z,15.83
2022-12-01T06:58:24.143Z,16.13
2022-12-01T07:04:03.245Z,16.23
2022-12-01T07:09:34.406Z,15.63
2022-12-01T07:15:03.557Z,15.50
2022-12-01T07:20:40.061Z,15.00
2022-12-01T07:26:17.933Z,15.10
2022-12-01T07:29:06.301Z,16.47
2022-12-01T07:34:34.605Z,15.23
2022-12-01T07:42:58.929Z,15.80
2022-12-01T07:51:25.685Z,15.23
2022-12-01T07:56:56.347Z,16.93
2022-12-01T08:02:49.698Z,15.43
2022-12-01T08:08:25.302Z,16.37
2022-12-01T08:13:56.677Z,15.93
2022-12-01T08:19:32.790Z,15.67
2022-12-01T08:25:06.712Z,15.93
2022-12-01T08:30:40.518Z,16.73
2022-12-01T08:36:13.213Z,17.00
2022-12-01T08:41:51.096Z,16.97
2022-12-01T08:47:20.044Z,16.50
2022-12-01T08:53:02.354Z,16.50
2022-12-01T08:55:50.756Z,17.10
2022-12-01T09:01:20.331Z,18.13
2022-12-01T09:06:55.491Z,18.47
2022-12-01T09:12:25.534Z,19.00
2022-12-01T09:18:04.591Z,18.80
2022-12-01T09:20:52.639Z,16.30
2022-12-01T09:26:26.232Z,17.77
2022-12-01T09:31:59.655Z,18.83
2022-12-01T09:34:48.311Z,18.83
2022-12-01T09:37:36.656Z,18.57
2022-12-01T09:40:25.830Z,16.93
2022-12-01T09:46:04.972Z,18.27
2022-12-01T09:48:54.426Z,18.27
2022-12-01T09:54:22.857Z,18.17
2022-12-01T09:59:54.202Z,19.33
2022-12-01T10:08:23.821Z,18.47
2022-12-01T10:14:02.693Z,18.47
2022-12-01T10:19:44.779Z,18.10
2022-12-01T10:22:56.636Z,18.17
2022-12-01T10:28:47.075Z,17.07
2022-12-01T10:31:39.939Z,18.67
2022-12-01T10:37:15.522Z,18.67
2022-12-01T10:40:04.789Z,18.60
2022-12-01T10:45:45.496Z,19.10
2022-12-01T10:51:21.856Z,17.90
2022-12-01T10:57:01.945Z,18.00
2022-12-01T11:02:41.951Z,18.00
2022-12-01T11:05:35.066Z,18.30
2022-12-01T11:08:27.649Z,17.73
2022-12-01T11:14:18.808Z,16.67
2022-12-01T11:17:31.254Z,19.07
2022-12-01T11:20:28.876Z,18.23
2022-12-01T11:26:27.570Z,17.53
2022-12-01T11:29:28.848Z,17.77
2022-12-01T11:32:22.473Z,17.20
2022-12-01T11:38:29.163Z,17.60
2022-12-01T11:44:01.743Z,18.37
2022-12-01T11:49:41.324Z,17.97
2022-12-01T11:58:13.703Z,18.63
2022-12-01T12:03:55.330Z,18.47
2022-12-01T12:09:58.748Z,18.03
2022-12-01T12:15:41.016Z,17.40
2022-12-01T12:21:31.619Z,18.53
2022-12-01T12:27:19.029Z,18.17
2022-12-01T12:33:35.492Z,17.07
2022-12-01T12:39:28.122Z,17.57
2022-12-01T12:45:08.884Z,17.80
2022-12-01T12:53:52.607Z,17.97
2022-12-01T13:02:22.582Z,17.80
2022-12-01T13:05:17.028Z,16.10
2022-12-01T13:13:47.956Z,16.93
2022-12-01T13:19:20.654Z,17.27
2022-12-01T13:24:55.613Z,17.63
2022-12-01T13:30:32.217Z,17.43
2022-12-01T13:33:21.157Z,18.43
2022-12-01T13:39:01.196Z,17.00
2022-12-01T13:44:37.331Z,17.43
2022-12-01T13:57:14.168Z,18.00
2022-12-01T14:03:30.387Z,17.10
2022-12-01T14:09:15.079Z,16.77
2022-12-01T14:14:53.965Z,17.90
2022-12-01T14:20:24.078Z,17.07
2022-12-01T14:23:18.441Z,17.77
2022-12-01T14:29:29.540Z,17.73
2022-12-01T14:32:26.857Z,17.77
2022-12-01T14:37:59.829Z,17.23
2022-12-01T14:43:55.947Z,15.93
2022-12-01T14:49:30.840Z,16.17
2022-12-01T14:58:06.110Z,15.63
2022-12-01T15:03:49.253Z,16.70
2022-12-01T15:09:33.477Z,15.57
2022-12-01T15:15:23.664Z,15.00
2022-12-01T15:21:08.728Z,15.17
2022-12-01T15:26:52.251Z,15.33
2022-12-01T15:32:29.558Z,16.90
2022-12-01T15:38:07.715Z,16.40
2022-12-01T15:43:45.059Z,16.60
2022-12-01T15:49:21.498Z,16.03
2022-12-01T15:54:52.188Z,17.00
2022-12-01T16:00:24.526Z,16.73
2022-12-01T16:03:14.285Z,16.17
2022-12-01T16:12:15.642Z,16.07
2022-12-01T16:18:02.639Z,17.50
2022-12-01T16:23:40.664Z,16.37
2022-12-01T16:29:22.966Z,17.33
2022-12-01T16:32:20.772Z,16.53
2022-12-01T16:40:42.837Z,17.07
2022-12-01T16:46:18.552Z,16.37
2022-12-01T16:51:56.805Z,15.87
2022-12-01T16:57:31.283Z,16.60
2022-12-01T17:03:05.456Z,16.80
2022-12-01T17:08:55.211Z,17.00
2022-12-01T17:14:33.565Z,16.57
2022-12-01T17:20:13.821Z,16.40
2022-12-01T17:25:44.719Z,15.33
2022-12-01T17:28:33.323Z,16.70
2022-12-01T17:34:10.507Z,16.40
2022-12-01T17:39:40.751Z,15.63
2022-12-01T17:45:21.481Z,15.97
2022-12-01T17:50:55.267Z,16.77
2022-12-01T17:56:30.415Z,16.37
2022-12-01T17:59:22.003Z,15.43
2022-12-01T18:02:13.654Z,15.50
2022-12-01T18:07:46.501Z,15.50
2022-12-01T18:13:20.204Z,16.10
2022-12-01T18:16:14.483Z,16.50
2022-12-01T18:19:03.536Z,16.97
2022-12-01T18:24:38.556Z,16.60
2022-12-01T18:30:26.230Z,15.93
2022-12-01T18:35:57.015Z,16.20
2022-12-01T18:38:47.251Z,16.43
2022-12-01T18:44:19.347Z,17.13
2022-12-01T18:47:08.105Z,15.40
2022-12-01T18:52:42.631Z,15.47
2022-12-01T18:58:21.248Z,16.30
2022-12-01T19:04:06.073Z,16.63
2022-12-01T19:06:55.520Z,15.97
2022-12-01T19:09:43.690Z,16.07
2022-12-01T19:18:02.094Z,16.67
2022-12-01T19:20:51.482Z,16.83
2022-12-01T19:23:40.419Z,16.93
2022-12-01T19:26:28.677Z,17.17
2022-12-01T19:32:17.874Z,17.33
2022-12-01T19:35:07.218Z,17.73
2022-12-01T19:40:37.500Z,16.37
2022-12-01T19:46:16.946Z,17.27
2022-12-01T19:51:46.633Z,17.70
2022-12-01T19:57:16.595Z,16.40
2022-12-01T20:02:54.623Z,16.03
2022-12-01T20:11:15.838Z,17.07
2022-12-01T20:17:56.822Z,16.30
2022-12-01T20:23:28.307Z,17.40
2022-12-01T20:29:09.346Z,16.90
2022-12-01T20:34:38.298Z,16.93
2022-12-01T20:40:11.647Z,16.13
2022-12-01T20:43:00.780Z,15.93
2022-12-01T20:45:52.759Z,16.23
2022-12-01T20:48:41.285Z,16.17
2022-12-01T20:51:31.330Z,17.47
2022-12-01T20:57:05.986Z,16.93
2022-12-01T20:59:54.177Z,16.87
2022-12-01T21:05:41.475Z,17.73
2022-12-01T21:14:10.386Z,18.60
2022-12-01T21:19:46.774Z,16.50
2022-12-01T21:22:37.814Z,16.37
2022-12-01T21:28:19.917Z,16.83
2022-12-01T21:31:14.357Z,16.67
2022-12-01T21:34:24.101Z,15.83
2022-12-01T21:40:03.019Z,17.43
2022-12-01T21:45:42.749Z,17.63
2022-12-01T21:51:25.416Z,16.73
2022-12-01T21:57:00.218Z,17.13
2022-12-01T21:59:49.561Z,16.40
2022-12-01T22:05:35.587Z,17.23
2022-12-01T22:08:27.322Z,17.00
2022-12-01T22:16:51.274Z,16.33
2022-12-01T22:22:24.876Z,17.17
2022-12-01T22:28:04.176Z,16.97
2022-12-01T22:33:32.431Z,16.93
2022-12-01T22:39:16.306Z,16.37
2022-12-01T22:44:52.972Z,17.17
2022-12-01T22:50:44.331Z,17.17
2022-12-01T22:59:16.739Z,14.87
2022-12-01T23:02:15.451Z,17.30
2022-12-01T23:07:56.288Z,14.90
2022-12-01T23:10:44.732Z,15.93
2022-12-01T23:16:20.359Z,15.50
2022-12-01T23:19:10.248Z,14.87
2022-12-01T23:22:06.356Z,15.80
2022-12-01T23:24:56.033Z,15.97
2022-12-01T23:30:35.009Z,14.97
2022-12-01T23:36:15.299Z,13.97
2022-12-01T23:41:53.242Z,16.10
2022-12-01T23:47:28.526Z,16.00
2022-12-01T23:53:11.720Z,14.40
2022-12-01T23:58:47.057Z,14.27
